Time;durP1;ratioP1;P1;durP2;ratioP2;P2;SDS_P1;SDS_P2;PMS_P1;PMS_P2;Temp;Humidity;BMP_temperature;BMP_pressure;BME280_temperature;BME280_humidity;BME280_pressure;Samples;Min_cycle;Max_cycle;Signal;HPM_P1;HPM_P2
2023/12/19 00:02:19;;;;;;;0.00;0.00;;;;;;;2.57;100.00;100402.47;5113199;28;20197;-51
2023/12/19 00:05:08;;;;;;;0.00;0.00;;;;;;;2.68;100.00;100406.72;5112860;28;20198;-53
2023/12/19 00:07:55;;;;;;;0.00;0.00;;;;;;;2.85;100.00;100394.28;5112866;28;20229;-52
2023/12/19 00:10:43;;;;;;;0.00;0.00;;;;;;;2.91;100.00;100381.16;5111805;28;20757;-52
2023/12/19 00:13:30;;;;;;;0.00;0.00;;;;;;;2.74;100.00;100378.72;5112846;28;20324;-52
2023/12/19 00:16:17;;;;;;;0.00;0.00;;;;;;;2.78;100.00;100393.50;5112568;28;20649;-52
2023/12/19 00:19:04;;;;;;;0.00;0.00;;;;;;;2.84;100.00;100389.94;5112519;28;20225;-52
2023/12/19 00:21:51;;;;;;;0.00;0.00;;;;;;;2.90;100.00;100387.25;5112819;28;20187;-52
2023/12/19 00:24:39;;;;;;;0.00;0.00;;;;;;;2.82;100.00;100376.03;5111636;28;20206;-52
2023/12/19 00:27:27;;;;;;;0.00;0.00;;;;;;;3.03;100.00;100374.88;5112882;28;20217;-53
2023/12/19 00:30:14;;;;;;;0.10;0.10;;;;;;;2.93;100.00;100383.72;5112714;28;20301;-52
2023/12/19 00:33:01;;;;;;;0.00;0.00;;;;;;;3.01;100.00;100390.59;5112927;28;20198;-52
2023/12/19 00:35:48;;;;;;;0.00;0.00;;;;;;;2.97;100.00;100401.09;5112934;28;20549;-52
2023/12/19 00:38:35;;;;;;;0.00;0.00;;;;;;;2.94;100.00;100401.16;5112758;28;20321;-52
2023/12/19 00:41:21;;;;;;;0.00;0.00;;;;;;;3.07;100.00;100407.97;5111532;28;20256;-52
2023/12/19 00:44:10;;;;;;;0.00;0.00;;;;;;;3.39;100.00;100386.56;5112775;28;20202;-52
2023/12/19 00:46:57;;;;;;;0.00;0.00;;;;;;;3.20;100.00;100392.97;5111565;28;20214;-52
2023/12/19 00:49:43;;;;;;;0.00;0.00;;;;;;;3.02;100.00;100392.31;5112799;28;20199;-53
2023/12/19 00:52:30;;;;;;;0.07;0.07;;;;;;;3.28;100.00;100388.47;5116416;28;20202;-51
2023/12/19 00:55:17;;;;;;;0.00;0.00;;;;;;;2.95;100.00;100374.97;5114846;28;20201;-52
2023/12/19 00:58:04;;;;;;;0.00;0.00;;;;;;;2.98;100.00;100371.44;5116306;28;20260;-52
2023/12/19 01:00:53;;;;;;;0.00;0.00;;;;;;;3.01;100.00;100363.56;5116479;28;20347;-52
2023/12/19 01:03:39;;;;;;;0.00;0.00;;;;;;;2.89;100.00;100351.50;5116084;28;20186;-52
2023/12/19 01:06:26;;;;;;;0.00;0.00;;;;;;;2.66;100.00;100369.25;5116064;28;20190;-52
2023/12/19 01:09:13;;;;;;;0.00;0.00;;;;;;;2.50;100.00;100369.41;5114766;28;20198;-52
2023/12/19 01:12:00;;;;;;;0.00;0.00;;;;;;;2.62;100.00;100376.28;5115875;28;20213;-51
2023/12/19 01:14:47;;;;;;;0.00;0.00;;;;;;;2.70;100.00;100366.59;5115993;28;20198;-52
2023/12/19 01:17:35;;;;;;;0.00;0.00;;;;;;;2.69;100.00;100366.59;5115714;28;20186;-52
2023/12/19 01:20:22;;;;;;;0.00;0.00;;;;;;;2.46;100.00;100359.03;5115674;28;20190;-52
2023/12/19 01:23:09;;;;;;;0.00;0.00;;;;;;;2.85;100.00;100376.84;5115930;28;20190;-52
2023/12/19 01:25:56;;;;;;;0.00;0.00;;;;;;;2.68;100.00;100388.41;5114508;28;20210;-52
2023/12/19 01:28:43;;;;;;;0.00;0.00;;;;;;;2.77;100.00;100388.28;5115415;28;20309;-52
2023/12/19 01:31:30;;;;;;;0.00;0.00;;;;;;;2.73;100.00;100382.25;5115609;28;20725;-52
2023/12/19 01:34:18;;;;;;;0.00;0.00;;;;;;;2.96;100.00;100365.38;5115594;28;20255;-52
2023/12/19 01:37:07;;;;;;;0.00;0.00;;;;;;;2.69;100.00;100345.66;5115486;28;20202;-52
2023/12/19 01:39:54;;;;;;;0.00;0.00;;;;;;;2.88;100.00;100352.38;5114250;28;20259;-52
2023/12/19 01:42:41;;;;;;;0.00;0.00;;;;;;;2.94;100.00;100357.53;5115358;28;20194;-52
2023/12/19 01:45:30;;;;;;;0.00;0.00;;;;;;;3.06;100.00;100346.88;5115298;28;20194;-52
2023/12/19 01:48:18;;;;;;;0.00;0.00;;;;;;;3.23;100.00;100341.41;5115088;28;20213;-52
2023/12/19 01:51:06;;;;;;;0.00;0.00;;;;;;;3.17;100.00;100336.25;5115204;28;20190;-52
2023/12/19 01:53:53;;;;;;;0.00;0.00;;;;;;;3.02;100.00;100334.75;5115318;28;20198;-52
2023/12/19 01:56:41;;;;;;;0.00;0.00;;;;;;;3.08;100.00;100326.78;5115155;28;20197;-52
2023/12/19 01:59:28;;;;;;;0.00;0.00;;;;;;;3.29;100.00;100327.38;5114989;28;20189;-53
2023/12/19 02:02:16;;;;;;;0.00;0.00;;;;;;;3.00;100.00;100317.34;5114722;28;20189;-52
2023/12/19 02:05:03;;;;;;;0.00;0.00;;;;;;;3.06;100.00;100318.09;5115079;28;20193;-51
2023/12/19 02:07:52;;;;;;;0.00;0.00;;;;;;;3.18;100.00;100311.81;5114719;28;20256;-53
2023/12/19 02:10:38;;;;;;;0.00;0.00;;;;;;;3.03;100.00;100307.69;5113493;28;20206;-52
2023/12/19 02:13:25;;;;;;;0.00;0.00;;;;;;;3.19;100.00;100313.56;5114833;28;20718;-52
2023/12/19 02:16:13;;;;;;;0.00;0.00;;;;;;;2.98;100.00;100329.56;5114674;28;20194;-52
2023/12/19 02:19:04;;;;;;;0.00;0.00;;;;;;;3.11;100.00;100337.22;5114431;28;20214;-52
2023/12/19 02:21:51;;;;;;;0.00;0.00;;;;;;;3.11;100.00;100334.63;5114627;28;20189;-52
2023/12/19 02:24:40;;;;;;;0.10;0.10;;;;;;;3.03;100.00;100322.53;5113214;28;20183;-51
2023/12/19 02:27:27;;;;;;;0.00;0.00;;;;;;;3.06;100.00;100315.50;5114405;28;20240;-52
2023/12/19 02:30:13;;;;;;;0.00;0.00;;;;;;;3.16;100.00;100300.50;5114447;28;20194;-52
2023/12/19 02:33:00;;;;;;;0.00;0.00;;;;;;;3.06;100.00;100291.06;5114347;28;20274;-52
2023/12/19 02:35:47;;;;;;;0.00;0.00;;;;;;;3.01;100.00;100282.44;5114346;28;20822;-52
2023/12/19 02:38:34;;;;;;;0.00;0.00;;;;;;;3.10;100.00;100272.69;5114233;28;20305;-52
2023/12/19 02:41:22;;;;;;;0.00;0.00;;;;;;;3.02;100.00;100264.09;5113354;28;20266;-52
2023/12/19 02:44:09;;;;;;;0.00;0.00;;;;;;;2.91;100.00;100257.31;5114247;28;20223;-53
2023/12/19 02:46:56;;;;;;;0.00;0.00;;;;;;;2.94;100.00;100254.63;5114149;28;20240;-52
2023/12/19 02:49:43;;;;;;;0.00;0.00;;;;;;;2.94;100.00;100252.00;5113779;28;20285;-52
2023/12/19 02:52:30;;;;;;;0.00;0.00;;;;;;;3.01;100.00;100232.72;5114055;28;20194;-52
2023/12/19 02:55:17;;;;;;;0.10;0.10;;;;;;;3.05;100.00;100227.38;5112787;28;20189;-52
2023/12/19 02:58:05;;;;;;;0.00;0.00;;;;;;;2.85;100.00;100224.22;5113920;28;20292;-52
2023/12/19 03:00:52;;;;;;;0.00;0.00;;;;;;;2.87;100.00;100230.28;5113902;28;20202;-53
2023/12/19 03:03:40;;;;;;;0.00;0.00;;;;;;;2.66;100.00;100231.50;5113790;28;20315;-52
2023/12/19 03:06:27;;;;;;;0.00;0.00;;;;;;;2.98;100.00;100230.13;5113644;28;20262;-52
2023/12/19 03:09:14;;;;;;;0.00;0.00;;;;;;;3.07;100.00;100225.59;5112219;28;20588;-52
2023/12/19 03:12:03;;;;;;;0.00;0.00;;;;;;;3.20;100.00;100212.34;5113747;28;20214;-52
2023/12/19 03:14:51;;;;;;;0.00;0.00;;;;;;;3.26;100.00;100215.69;5113209;28;20285;-53
2023/12/19 03:17:38;;;;;;;0.00;0.00;;;;;;;3.06;100.00;100194.22;5113614;28;21586;-52
2023/12/19 03:20:25;;;;;;;0.00;0.00;;;;;;;2.80;100.00;100192.06;5113659;28;20665;-52
2023/12/19 03:23:12;;;;;;;0.00;0.00;;;;;;;2.97;100.00;100200.47;5113479;28;20212;-52
2023/12/19 03:25:59;;;;;;;0.00;0.00;;;;;;;2.74;100.00;100203.47;5112284;28;20194;-52
2023/12/19 03:28:46;;;;;;;0.00;0.00;;;;;;;2.79;100.00;100193.78;5113508;28;20236;-52
2023/12/19 03:31:34;;;;;;;0.00;0.00;;;;;;;2.53;100.00;100188.09;5113314;28;20193;-52
2023/12/19 03:34:21;;;;;;;0.00;0.00;;;;;;;2.67;100.00;100193.13;5113462;28;20205;-52
2023/12/19 03:37:08;;;;;;;0.00;0.00;;;;;;;2.56;100.00;100193.28;5113456;28;20198;-52
2023/12/19 03:39:55;;;;;;;0.00;0.00;;;;;;;2.41;100.00;100188.25;5111919;28;20214;-52
2023/12/19 03:42:42;;;;;;;0.00;0.00;;;;;;;2.58;100.00;100188.88;5113430;28;20206;-52
2023/12/19 03:45:29;;;;;;;0.00;0.00;;;;;;;2.54;100.00;100177.63;5113452;28;20278;-52
2023/12/19 03:48:17;;;;;;;0.00;0.00;;;;;;;2.64;100.00;100188.81;5113026;28;20209;-52
2023/12/19 03:51:04;;;;;;;0.10;0.10;;;;;;;2.75;100.00;100179.03;5113364;28;20240;-52
2023/12/19 03:53:51;;;;;;;0.00;0.00;;;;;;;2.85;100.00;100187.59;5113239;28;20190;-52
2023/12/19 03:56:38;;;;;;;0.00;0.00;;;;;;;2.38;100.00;100177.84;5112994;28;20213;-52
2023/12/19 03:59:25;;;;;;;0.00;0.00;;;;;;;2.46;100.00;100187.31;5113252;28;20198;-51
2023/12/19 04:02:12;;;;;;;0.00;0.00;;;;;;;2.43;100.00;100178.66;5113472;28;20267;-52
2023/12/19 04:05:01;;;;;;;0.00;0.00;;;;;;;2.60;100.00;100189.72;5112916;28;20204;-52
2023/12/19 04:07:47;;;;;;;0.00;0.00;;;;;;;2.49;100.00;100182.03;5113107;28;20205;-52
2023/12/19 04:10:34;;;;;;;0.00;0.00;;;;;;;2.66;100.00;100188.78;5111793;28;20202;-52
2023/12/19 04:13:22;;;;;;;0.10;0.10;;;;;;;2.61;100.00;100185.38;5112996;28;20301;-52
2023/12/19 04:16:09;;;;;;;0.00;0.00;;;;;;;2.47;100.00;100183.81;5112965;28;20264;-52
2023/12/19 04:18:56;;;;;;;0.00;0.00;;;;;;;2.59;100.00;100190.63;5112806;28;20238;-52
2023/12/19 04:21:44;;;;;;;0.00;0.00;;;;;;;2.74;100.00;100194.75;5112843;28;20729;-52
2023/12/19 04:24:31;;;;;;;0.00;0.00;;;;;;;2.85;100.00;100195.44;5112977;28;20198;-52
2023/12/19 04:27:18;;;;;;;0.00;0.00;;;;;;;2.60;100.00;100181.88;5116966;28;20197;-52
2023/12/19 04:30:06;;;;;;;0.00;0.00;;;;;;;2.76;100.00;100179.91;5116337;28;20338;-52
2023/12/19 04:32:53;;;;;;;0.00;0.00;;;;;;;3.02;100.00;100166.41;5116690;28;20193;-51
2023/12/19 04:35:40;;;;;;;0.00;0.00;;;;;;;3.15;100.00;100158.28;5116685;28;20191;-52
2023/12/19 04:38:29;;;;;;;0.00;0.00;;;;;;;3.23;100.00;100150.31;5116528;28;20194;-52
2023/12/19 04:41:15;;;;;;;0.00;0.00;;;;;;;3.14;100.00;100146.09;5115485;28;20194;-52
2023/12/19 04:44:02;;;;;;;0.00;0.00;;;;;;;3.01;100.00;100138.50;5116651;28;20248;-52
2023/12/19 04:46:49;;;;;;;0.00;0.00;;;;;;;3.04;100.00;100139.31;5116412;28;20198;-52
2023/12/19 04:49:37;;;;;;;0.00;0.00;;;;;;;2.94;100.00;100134.25;5116221;28;20218;-52
2023/12/19 04:52:24;;;;;;;0.00;0.00;;;;;;;2.91;100.00;100140.41;5116440;28;20190;-52
2023/12/19 04:55:12;;;;;;;0.00;0.00;;;;;;;3.22;100.00;100137.25;5114843;28;20218;-52
2023/12/19 04:57:59;;;;;;;0.00;0.00;;;;;;;2.95;100.00;100144.69;5116336;28;20194;-52
2023/12/19 05:00:47;;;;;;;0.00;0.00;;;;;;;2.90;100.00;100157.00;5116243;28;20668;-53
2023/12/19 05:03:37;;;;;;;0.00;0.00;;;;;;;2.78;100.00;100157.19;5116090;28;20576;-52
2023/12/19 05:06:24;;;;;;;0.00;0.00;;;;;;;2.98;100.00;100155.09;5116064;28;20716;-52
2023/12/19 05:09:11;;;;;;;0.00;0.00;;;;;;;2.82;100.00;100154.50;5113540;28;20217;-52
2023/12/19 05:11:59;;;;;;;0.00;0.00;;;;;;;2.54;100.00;100141.00;5115993;28;20315;-52
2023/12/19 05:14:46;;;;;;;0.00;0.00;;;;;;;2.58;100.00;100136.59;5116075;28;20243;-52
2023/12/19 05:17:33;;;;;;;0.10;0.10;;;;;;;2.17;100.00;100134.59;5115798;28;20197;-52
2023/12/19 05:20:20;;;;;;;0.00;0.00;;;;;;;2.37;100.00;100136.91;5115884;28;20240;-51
2023/12/19 05:23:07;;;;;;;0.00;0.00;;;;;;;2.37;100.00;100140.41;5115918;28;20320;-52
2023/12/19 05:25:53;;;;;;;0.00;0.00;;;;;;;2.32;100.00;100154.41;5114362;28;20205;-52
2023/12/19 05:28:42;;;;;;;0.00;0.00;;;;;;;3.19;100.00;100147.78;5115566;28;20263;-52
2023/12/19 05:31:28;;;;;;;0.00;0.00;;;;;;;3.07;100.00;100141.84;5115642;28;20193;-51
2023/12/19 05:34:15;;;;;;;0.00;0.00;;;;;;;2.85;100.00;100141.38;5115684;28;20372;-52
2023/12/19 05:37:03;;;;;;;0.00;0.00;;;;;;;2.59;100.00;100126.09;5114883;28;20194;-51
2023/12/19 05:39:50;;;;;;;0.00;0.00;;;;;;;2.68;100.00;100138.16;5114126;28;20233;-52
2023/12/19 05:42:37;;;;;;;0.00;0.00;;;;;;;2.56;100.00;100136.63;5115451;28;20703;-52
2023/12/19 05:45:25;;;;;;;0.00;0.00;;;;;;;2.58;100.00;100136.59;5115417;28;20197;-52
2023/12/19 05:48:12;;;;;;;0.00;0.00;;;;;;;2.53;100.00;100135.81;5115321;28;20316;-52
2023/12/19 05:51:00;;;;;;;0.00;0.00;;;;;;;2.61;100.00;100146.16;5114992;28;20283;-52
2023/12/19 05:53:47;;;;;;;0.07;0.07;;;;;;;2.75;100.00;100138.94;5115208;28;20368;-52
2023/12/19 05:56:34;;;;;;;0.00;0.00;;;;;;;2.93;100.00;100124.69;5115159;28;20214;-52
2023/12/19 05:59:20;;;;;;;0.00;0.00;;;;;;;2.74;100.00;100114.53;5115087;28;20676;-52
2023/12/19 06:02:09;;;;;;;0.10;0.10;;;;;;;2.97;100.00;100102.78;5114974;28;20202;-51
2023/12/19 06:04:55;;;;;;;0.00;0.00;;;;;;;2.68;100.00;100105.91;5115003;28;20730;-52
2023/12/19 06:07:42;;;;;;;0.00;0.00;;;;;;;2.69;100.00;100105.88;5114922;28;20194;-52
2023/12/19 06:10:30;;;;;;;0.00;0.00;;;;;;;2.65;100.00;100108.59;5113208;28;20699;-52
2023/12/19 06:13:17;;;;;;;0.00;0.00;;;;;;;2.60;100.00;100103.41;5114846;28;20301;-51
2023/12/19 06:16:04;;;;;;;0.00;0.00;;;;;;;2.43;100.00;100100.25;5114842;28;20206;-52
2023/12/19 06:18:52;;;;;;;0.00;0.00;;;;;;;2.29;100.00;100101.28;5114498;28;20230;-51
2023/12/19 06:21:40;;;;;;;0.00;0.00;;;;;;;2.37;100.00;100102.94;5114705;28;20244;-52
2023/12/19 06:24:26;;;;;;;0.00;0.00;;;;;;;2.67;100.00;100112.91;5113442;28;20260;-52
2023/12/19 06:27:16;;;;;;;0.00;0.00;;;;;;;2.42;100.00;100099.38;5114663;28;20271;-52
2023/12/19 06:30:04;;;;;;;0.00;0.00;;;;;;;2.27;100.00;100103.06;5114375;28;20218;-51
2023/12/19 06:33:08;;;;;;;0.00;0.00;;;;;;;2.45;100.00;100101.94;5114440;28;20240;-51
2023/12/19 06:35:56;;;;;;;0.00;0.00;;;;;;;2.44;100.00;100089.75;5114459;28;20190;-51
2023/12/19 06:38:43;;;;;;;0.00;0.00;;;;;;;2.36;100.00;100091.63;5114410;28;20232;-52
2023/12/19 06:41:30;;;;;;;0.00;0.00;;;;;;;2.16;100.00;100107.59;5114076;28;20190;-51
2023/12/19 06:44:17;;;;;;;0.00;0.00;;;;;;;2.11;100.00;100098.09;5114279;28;20317;-52
2023/12/19 06:47:04;;;;;;;0.10;0.10;;;;;;;2.24;100.00;100103.13;5113999;28;20320;-52
2023/12/19 06:49:51;;;;;;;0.00;0.00;;;;;;;2.29;100.00;100100.44;5113736;28;20210;-52
2023/12/19 06:52:39;;;;;;;0.00;0.00;;;;;;;2.22;100.00;100089.22;5114015;28;20216;-52
2023/12/19 06:55:27;;;;;;;0.00;0.00;;;;;;;2.34;100.00;100082.94;5112856;28;20263;-52
2023/12/19 06:58:13;;;;;;;0.00;0.00;;;;;;;2.42;100.00;100090.66;5113786;28;20271;-52
2023/12/19 07:01:00;;;;;;;0.00;0.00;;;;;;;2.44;100.00;100096.72;5114068;28;20202;-52
2023/12/19 07:03:47;;;;;;;0.00;0.00;;;;;;;2.40;100.00;100088.06;5113919;28;20190;-52
2023/12/19 07:06:34;;;;;;;0.00;0.00;;;;;;;2.34;100.00;100088.16;5113454;28;20193;-52
2023/12/19 07:09:23;;;;;;;0.00;0.00;;;;;;;2.36;100.00;100090.75;5112528;28;20232;-52
2023/12/19 07:12:10;;;;;;;0.00;0.00;;;;;;;2.17;100.00;100083.19;5113833;28;20614;-52
2023/12/19 07:14:56;;;;;;;0.00;0.00;;;;;;;2.19;100.00;100081.41;5113506;28;20211;-52
2023/12/19 07:17:45;;;;;;;0.00;0.00;;;;;;;2.37;100.00;100069.81;5113570;28;20336;-52
2023/12/19 07:20:32;;;;;;;0.00;0.00;;;;;;;2.46;100.00;100056.59;5113679;28;20672;-52
2023/12/19 07:23:19;;;;;;;0.00;0.00;;;;;;;2.42;100.00;100059.31;5113472;28;20610;-51
2023/12/19 07:26:07;;;;;;;0.00;0.00;;;;;;;2.56;100.00;100049.47;5111940;28;20198;-52
2023/12/19 07:28:57;;;;;;;0.00;0.00;;;;;;;2.49;100.00;100045.22;5113571;28;20187;-52
2023/12/19 07:31:43;;;;;;;0.00;0.00;;;;;;;2.62;100.00;100045.88;5113278;28;20569;-52
2023/12/19 07:34:30;;;;;;;0.10;0.10;;;;;;;2.78;100.00;100045.56;5113505;28;20197;-52
2023/12/19 07:37:17;;;;;;;0.00;0.00;;;;;;;2.59;100.00;100031.94;5113419;28;20197;-52
2023/12/19 07:40:10;;;;;;;0.00;0.00;;;;;;;2.53;100.00;100054.75;5112035;28;20193;-51
2023/12/19 07:42:58;;;;;;;0.00;0.00;;;;;;;2.27;100.00;100053.41;5113438;28;20194;-51
2023/12/19 07:45:45;;;;;;;0.00;0.00;;;;;;;2.30;100.00;100060.34;5113389;28;20265;-52
2023/12/19 07:48:32;;;;;;;0.00;0.00;;;;;;;2.17;100.00;100050.97;5113537;28;20217;-52
2023/12/19 07:51:23;;;;;;;0.00;0.00;;;;;;;2.13;100.00;100060.63;5113087;28;20233;-52
2023/12/19 07:54:10;;;;;;;0.00;0.00;;;;;;;2.31;100.00;100049.00;5112228;28;20206;-51
2023/12/19 07:56:59;;;;;;;0.00;0.00;;;;;;;2.06;100.00;100035.47;5113339;28;20312;-52
2023/12/19 07:59:48;;;;;;;0.00;0.00;;;;;;;2.17;100.00;100046.59;5115064;28;20244;-52
2023/12/19 08:02:35;;;;;;;0.00;0.00;;;;;;;2.09;100.00;100051.09;5117365;28;20190;-52
2023/12/19 08:05:22;;;;;;;0.00;0.00;;;;;;;2.19;100.00;100043.97;5117371;28;20483;-52
2023/12/19 08:08:09;;;;;;;0.00;0.00;;;;;;;1.97;100.00;100066.94;5117351;28;20684;-52
2023/12/19 08:10:56;;;;;;;0.00;0.00;;;;;;;2.46;100.00;100069.66;5115707;28;20280;-51
2023/12/19 08:13:43;;;;;;;0.00;0.00;;;;;;;2.11;100.00;100053.66;5117139;28;20194;-52
2023/12/19 08:16:31;;;;;;;0.00;0.00;;;;;;;1.91;100.00;100038.28;5116896;28;20186;-51
2023/12/19 08:19:18;;;;;;;0.00;0.00;;;;;;;1.98;100.00;100051.25;5116752;28;20680;-51
2023/12/19 08:22:05;;;;;;;0.00;0.00;;;;;;;2.05;100.00;100052.03;5117008;28;20214;-52
2023/12/19 08:24:52;;;;;;;0.00;0.00;;;;;;;1.84;100.00;100047.13;5115642;28;20696;-52
2023/12/19 08:27:39;;;;;;;0.00;0.00;;;;;;;1.90;100.00;100044.41;5116828;28;20331;-52
2023/12/19 08:30:27;;;;;;;0.00;0.00;;;;;;;2.09;100.00;100053.69;5116724;28;20182;-52
2023/12/19 08:33:16;;;;;;;0.00;0.00;;;;;;;2.31;100.00;100041.16;5116703;28;20191;-51
2023/12/19 08:36:03;;;;;;;0.00;0.00;;;;;;;1.94;100.00;100033.03;5116670;28;20201;-51
2023/12/19 08:38:50;;;;;;;0.00;0.00;;;;;;;1.87;100.00;100037.50;5115308;28;20267;-51
2023/12/19 08:41:38;;;;;;;0.00;0.00;;;;;;;1.92;100.00;100029.56;5116704;28;20187;-51
2023/12/19 08:44:26;;;;;;;0.00;0.00;;;;;;;2.00;100.00;100051.22;5116597;28;20346;-52
2023/12/19 08:47:13;;;;;;;0.00;0.00;;;;;;;2.09;100.00;100056.31;5116540;28;20194;-52
2023/12/19 08:50:02;;;;;;;0.00;0.00;;;;;;;2.29;100.00;100045.53;5116174;28;20205;-51
2023/12/19 08:52:49;;;;;;;0.00;0.00;;;;;;;2.11;100.00;100031.00;5116162;28;20224;-51
2023/12/19 08:55:36;;;;;;;0.00;0.00;;;;;;;2.10;100.00;100029.28;5115008;28;20566;-51
2023/12/19 08:58:23;;;;;;;0.00;0.00;;;;;;;2.14;100.00;100023.16;5116326;28;20691;-52
2023/12/19 09:01:10;;;;;;;0.00;0.00;;;;;;;2.03;100.00;100019.84;5116111;28;20194;-51
2023/12/19 09:03:58;;;;;;;0.00;0.00;;;;;;;2.11;100.00;100033.63;5116082;28;20252;-51
2023/12/19 09:06:46;;;;;;;0.00;0.00;;;;;;;2.18;100.00;100024.81;5116196;28;20190;-51
2023/12/19 09:09:33;;;;;;;0.00;0.00;;;;;;;2.04;100.00;100013.72;5114579;28;20353;-52
2023/12/19 09:12:20;;;;;;;0.00;0.00;;;;;;;2.17;100.00;100010.03;5114669;28;20213;-51
2023/12/19 09:15:08;;;;;;;0.03;0.03;;;;;;;2.26;100.00;100009.88;5115973;28;20236;-52
2023/12/19 09:17:55;;;;;;;0.00;0.00;;;;;;;2.18;100.00;100016.97;5115583;28;20226;-51
2023/12/19 09:20:42;;;;;;;0.00;0.00;;;;;;;2.26;100.00;100020.31;5115934;28;20212;-51
2023/12/19 09:23:30;;;;;;;0.00;0.00;;;;;;;2.06;100.00;100011.94;5115871;28;20680;-51
2023/12/19 09:26:17;;;;;;;0.00;0.00;;;;;;;2.07;100.00;100018.03;5115610;28;20190;-51
2023/12/19 09:29:04;;;;;;;0.00;0.00;;;;;;;2.29;100.00;100017.66;5115743;28;20228;-51
2023/12/19 09:31:51;;;;;;;0.00;0.00;;;;;;;1.97;100.00;100006.88;5115528;28;20206;-51
2023/12/19 09:34:38;;;;;;;0.00;0.00;;;;;;;2.33;100.00;100017.63;5115400;28;20198;-51
2023/12/19 09:37:26;;;;;;;0.00;0.00;;;;;;;2.18;100.00;100009.13;5115180;28;20204;-51
2023/12/19 09:40:17;;;;;;;0.10;0.10;;;;;;;2.28;100.00;100002.00;5114050;28;20190;-52
2023/12/19 09:43:04;;;;;;;0.00;0.00;;;;;;;2.31;100.00;99988.88;5114888;28;20711;-51
2023/12/19 09:45:51;;;;;;;0.00;0.00;;;;;;;2.39;100.00;99975.69;5115522;28;20763;-51
2023/12/19 09:48:38;;;;;;;0.00;0.00;;;;;;;2.50;100.00;99981.56;5115344;28;20186;-51
2023/12/19 09:51:29;;;;;;;0.00;0.00;;;;;;;2.35;100.00;99976.63;5115135;28;20213;-51
2023/12/19 09:54:16;;;;;;;0.00;0.00;;;;;;;2.29;100.00;99977.59;5113995;28;20319;-51
2023/12/19 09:57:05;;;;;;;0.00;0.00;;;;;;;2.54;100.00;99975.41;5115222;28;20248;-52
2023/12/19 09:59:54;;;;;;;0.00;0.00;;;;;;;2.59;100.00;99984.03;5115054;28;20198;-51
2023/12/19 10:02:43;;;;;;;0.00;0.00;;;;;;;2.45;100.00;99976.44;5115161;28;20191;-51
2023/12/19 10:05:30;;;;;;;0.00;0.00;;;;;;;2.32;100.00;99958.38;5115053;28;20687;-51
2023/12/19 10:08:19;;;;;;;0.00;0.00;;;;;;;2.23;100.00;99968.13;5114924;28;20677;-51
2023/12/19 10:11:07;;;;;;;0.00;0.00;;;;;;;2.42;100.00;99952.13;5113522;28;20194;-51
2023/12/19 10:14:09;;;;;;;0.00;0.00;;;;;;;2.38;100.00;99938.22;5114759;28;20195;-51
2023/12/19 10:16:56;;;;;;;0.00;0.00;;;;;;;2.64;100.00;99935.13;5114679;28;20256;-51
2023/12/19 10:19:43;;;;;;;0.00;0.00;;;;;;;2.50;100.00;99947.59;5114205;28;20226;-52
2023/12/19 10:22:30;;;;;;;0.00;0.00;;;;;;;2.49;100.00;99949.34;5114449;27;20267;-51
2023/12/19 10:25:21;;;;;;;0.00;0.00;;;;;;;2.70;100.00;99947.19;5113303;28;20186;-51
2023/12/19 10:28:10;;;;;;;0.00;0.00;;;;;;;2.56;100.00;99942.25;5114288;28;20202;-51
2023/12/19 10:31:12;;;;;;;0.00;0.00;;;;;;;2.52;100.00;99938.84;5114277;28;20264;-51
2023/12/19 10:33:59;;;;;;;0.00;0.00;;;;;;;2.40;100.00;99933.81;5113964;28;20194;-51
2023/12/19 10:36:46;;;;;;;0.00;0.00;;;;;;;2.24;100.00;99920.19;5113983;28;20185;-52
2023/12/19 10:39:33;;;;;;;0.00;0.00;;;;;;;2.26;100.00;99918.41;5112954;28;20268;-52
2023/12/19 10:42:20;;;;;;;0.00;0.00;;;;;;;2.18;100.00;99909.84;5114298;28;20272;-52
2023/12/19 10:45:08;;;;;;;0.00;0.00;;;;;;;2.39;100.00;99921.63;5114344;28;20213;-52
2023/12/19 10:47:57;;;;;;;0.00;0.00;;;;;;;2.43;100.00;99918.09;5114119;28;20212;-52
2023/12/19 10:50:45;;;;;;;0.00;0.00;;;;;;;2.58;100.00;99911.69;5114040;28;20232;-52
2023/12/19 10:53:33;;;;;;;0.00;0.00;;;;;;;2.50;100.00;99890.91;5113855;28;20217;-52
2023/12/19 10:56:25;;;;;;;0.00;0.00;;;;;;;2.47;100.00;99896.22;5114046;28;20220;-53
2023/12/19 10:59:17;;;;;;;0.00;0.00;;;;;;;2.46;100.00;99902.34;5114000;28;20194;-52
2023/12/19 11:02:29;;;;;;;0.00;0.00;;;;;;;2.91;100.00;99901.47;5114058;28;20261;-52
2023/12/19 11:05:26;;;;;;;0.00;0.00;;;;;;;3.24;100.00;99897.25;5113955;28;20358;-52
2023/12/19 11:08:15;;;;;;;0.00;0.00;;;;;;;2.85;100.00;99886.75;5114150;28;20186;-53
2023/12/19 11:11:05;;;;;;;0.00;0.00;;;;;;;2.53;100.00;99884.78;5112505;28;20804;-52
2023/12/19 11:13:54;;;;;;;0.00;0.00;;;;;;;2.83;100.00;99865.84;5113501;28;20222;-52
2023/12/19 11:16:49;;;;;;;0.00;0.00;;;;;;;2.72;100.00;99865.22;5113624;28;20198;-52
2023/12/19 11:19:44;;;;;;;0.00;0.00;;;;;;;2.85;100.00;99861.44;5113311;28;20300;-53
2023/12/19 11:22:40;;;;;;;0.00;0.00;;;;;;;2.63;100.00;99856.72;5113695;28;20190;-52
2023/12/19 11:25:33;;;;;;;0.00;0.00;;;;;;;2.71;100.00;99845.19;5112287;28;20210;-52
2023/12/19 11:28:19;;;;;;;0.00;0.00;;;;;;;2.53;100.00;99843.81;5113221;28;20197;-52
2023/12/19 11:31:28;;;;;;;0.00;0.00;;;;;;;2.53;100.00;99837.72;5113504;28;20194;-53
2023/12/19 11:34:22;;;;;;;0.00;0.00;;;;;;;2.67;100.00;99842.66;5112946;28;20190;-52
2023/12/19 11:37:10;;;;;;;0.00;0.00;;;;;;;2.64;100.00;99822.69;5113481;28;20244;-52
2023/12/19 11:39:58;;;;;;;0.00;0.00;;;;;;;2.86;100.00;99804.75;5111684;28;20232;-52
2023/12/19 11:42:49;;;;;;;0.00;0.00;;;;;;;2.99;100.00;99818.41;5113281;28;20244;-52
2023/12/19 11:45:37;;;;;;;0.00;0.00;;;;;;;2.88;100.00;99802.97;5113312;28;20222;-52
2023/12/19 11:48:40;;;;;;;0.00;0.00;;;;;;;2.91;100.00;99788.97;5113142;28;20237;-52
2023/12/19 11:51:50;;;;;;;0.00;0.00;;;;;;;2.87;100.00;99777.69;5113229;28;20228;-52
2023/12/19 11:54:38;;;;;;;0.00;0.00;;;;;;;3.03;100.00;99783.44;5111922;28;20198;-52
2023/12/19 11:57:27;;;;;;;0.00;0.00;;;;;;;2.85;100.00;99772.50;5113216;28;20212;-52
2023/12/19 12:00:14;;;;;;;0.00;0.00;;;;;;;2.96;100.00;99776.63;5113142;28;20225;-52
2023/12/19 12:03:07;;;;;;;0.00;0.00;;;;;;;3.13;100.00;99770.09;5113154;28;20194;-53
2023/12/19 12:05:55;;;;;;;0.00;0.00;;;;;;;3.01;100.00;99748.63;5113224;28;20194;-52
2023/12/19 12:08:42;;;;;;;0.00;0.00;;;;;;;2.82;100.00;99749.03;5112193;28;20209;-52
2023/12/19 12:11:28;;;;;;;0.00;0.00;;;;;;;2.67;100.00;99752.00;5111994;28;20190;-52
2023/12/19 12:14:17;;;;;;;0.00;0.00;;;;;;;2.62;100.00;99743.41;5112883;28;20217;-53
2023/12/19 12:17:05;;;;;;;0.00;0.00;;;;;;;2.74;100.00;99735.28;5113137;28;20190;-53
2023/12/19 12:19:53;;;;;;;0.00;0.00;;;;;;;2.70;100.00;99730.13;5113189;28;20193;-53
2023/12/19 12:22:41;;;;;;;0.00;0.00;;;;;;;2.85;100.00;99728.03;5113193;28;20189;-52
2023/12/19 12:25:28;;;;;;;0.10;0.10;;;;;;;2.73;100.00;99741.41;5111694;28;20550;-53
2023/12/19 12:28:17;;;;;;;0.07;0.07;;;;;;;2.65;100.00;99719.78;5112925;28;20205;-53
2023/12/19 12:31:06;;;;;;;0.00;0.00;;;;;;;2.70;100.00;99709.22;5112971;28;20194;-52
2023/12/19 12:33:54;;;;;;;0.00;0.00;;;;;;;2.61;100.00;99727.75;5112562;28;20210;-53
2023/12/19 12:36:41;;;;;;;0.00;0.00;;;;;;;2.61;100.00;99722.53;5112934;28;20257;-52
2023/12/19 12:39:28;;;;;;;0.00;0.00;;;;;;;2.61;100.00;99710.31;5111377;28;20243;-52
2023/12/19 12:42:22;;;;;;;0.00;0.00;;;;;;;2.82;100.00;99707.19;5112663;28;20190;-52
2023/12/19 12:45:09;;;;;;;0.00;0.00;;;;;;;2.69;100.00;99697.03;5113357;28;20194;-52
2023/12/19 12:48:12;;;;;;;0.00;0.00;;;;;;;2.83;100.00;99698.44;5116606;28;20197;-52
2023/12/19 12:50:59;;;;;;;0.00;0.00;;;;;;;2.58;100.00;99700.75;5116102;28;20197;-53
2023/12/19 12:53:45;;;;;;;0.00;0.00;;;;;;;2.87;100.00;99686.13;5114933;28;20209;-52
2023/12/19 12:56:34;;;;;;;0.00;0.00;;;;;;;2.95;100.00;99678.97;5116116;28;20201;-52
2023/12/19 12:59:25;;;;;;;0.00;0.00;;;;;;;2.91;100.00;99671.25;5116318;28;20198;-53
2023/12/19 13:02:11;;;;;;;0.00;0.00;;;;;;;3.08;100.00;99676.88;5116287;28;20270;-52
2023/12/19 13:05:00;;;;;;;0.00;0.00;;;;;;;3.20;100.00;99670.50;5116218;28;20320;-53